createdAt,value
2023-02-17T00:01:11.163Z,95001.41
2023-02-17T00:03:38.080Z,94998.63
2023-02-17T00:06:09.583Z,95019.97
2023-02-17T00:08:36.855Z,95004.44
2023-02-17T00:11:04.052Z,95000.72
2023-02-17T00:13:30.741Z,95009.81
2023-02-17T00:15:57.429Z,95009.84
2023-02-17T00:18:24.447Z,95005.91
2023-02-17T00:20:51.746Z,95005.91
2023-02-17T00:23:18.584Z,95002.84
2023-02-17T00:25:45.339Z,95003.06
2023-02-17T00:28:12.054Z,95007.69
2023-02-17T00:30:39.437Z,95007.28
2023-02-17T00:33:06.326Z,95006.00
2023-02-17T00:35:33.002Z,94991.94
2023-02-17T00:37:59.752Z,94993.63
2023-02-17T00:40:26.400Z,94987.34
2023-02-17T00:42:54.937Z,94986.94
2023-02-17T00:45:21.697Z,94977.41
2023-02-17T00:47:48.384Z,94968.19
2023-02-17T00:50:15.139Z,94968.88
2023-02-17T00:52:41.861Z,94957.75
2023-02-17T00:55:08.946Z,94958.06
2023-02-17T00:57:35.638Z,94954.94
2023-02-17T01:00:02.326Z,94966.53
2023-02-17T01:02:29.042Z,94960.31
2023-02-17T01:04:55.757Z,94970.06
2023-02-17T01:07:22.416Z,94977.78
2023-02-17T01:09:49.084Z,94975.63
2023-02-17T01:12:15.729Z,94978.84
2023-02-17T01:14:42.424Z,94971.69
2023-02-17T01:17:09.273Z,94970.44
2023-02-17T01:19:36.007Z,94969.28
2023-02-17T01:22:02.664Z,94974.00
2023-02-17T01:24:29.344Z,94964.69
2023-02-17T01:26:56.092Z,94970.66
2023-02-17T01:29:22.908Z,94964.22
2023-02-17T01:31:49.601Z,94957.13
2023-02-17T01:34:16.265Z,94964.88
2023-02-17T01:36:42.983Z,94957.59
2023-02-17T01:39:13.264Z,94955.53
2023-02-17T01:41:39.931Z,94953.34
2023-02-17T01:44:20.645Z,94953.63
2023-02-17T01:46:49.099Z,94968.19
2023-02-17T01:49:35.068Z,94962.59
2023-02-17T01:52:19.668Z,94960.06
2023-02-17T01:54:52.863Z,94950.75
2023-02-17T01:57:24.145Z,94935.38
2023-02-17T01:59:51.874Z,94932.50
2023-02-17T02:02:19.063Z,94945.88
2023-02-17T02:04:48.561Z,94940.50
2023-02-17T02:07:21.008Z,94938.75
2023-02-17T02:09:52.413Z,94943.84
2023-02-17T02:12:31.380Z,94940.16
2023-02-17T02:15:02.067Z,94935.03
2023-02-17T02:17:50.159Z,94933.31
2023-02-17T02:20:37.483Z,94939.22
2023-02-17T02:23:09.842Z,94952.19
2023-02-17T02:26:08.957Z,94949.69
2023-02-17T02:28:53.823Z,94955.06
2023-02-17T02:31:29.077Z,94955.63
2023-02-17T02:34:23.415Z,94942.03
2023-02-17T02:37:05.992Z,94951.97
2023-02-17T02:39:39.360Z,94946.66
2023-02-17T02:42:10.658Z,94952.88
2023-02-17T02:44:37.283Z,94943.69
2023-02-17T02:47:38.463Z,94950.38
2023-02-17T02:50:05.729Z,94939.25
2023-02-17T02:52:48.202Z,94939.91
2023-02-17T02:55:47.671Z,94939.59
2023-02-17T02:58:19.337Z,94943.31
2023-02-17T03:01:04.342Z,94942.66
2023-02-17T03:04:09.210Z,94938.41
2023-02-17T03:06:47.574Z,94938.56
2023-02-17T03:09:22.493Z,94952.34
2023-02-17T03:11:49.394Z,94943.88
2023-02-17T03:14:19.506Z,94946.72
2023-02-17T03:16:46.983Z,94948.91
2023-02-17T03:19:15.463Z,94947.22
2023-02-17T03:21:51.434Z,94931.16
2023-02-17T03:24:18.774Z,94949.72
2023-02-17T03:26:45.474Z,94935.72
2023-02-17T03:29:12.129Z,94931.59
2023-02-17T03:31:39.430Z,94930.09
2023-02-17T03:34:06.868Z,94933.13
2023-02-17T03:36:33.514Z,94934.75
2023-02-17T03:39:00.383Z,94940.47
2023-02-17T03:41:27.395Z,94940.19
2023-02-17T03:43:54.291Z,94946.09
2023-02-17T03:46:21.287Z,94932.72
2023-02-17T03:48:48.069Z,94937.28
2023-02-17T03:51:25.889Z,94945.66
2023-02-17T03:53:52.746Z,94938.59
2023-02-17T03:56:19.397Z,94946.31
2023-02-17T03:58:46.109Z,94960.91
2023-02-17T04:01:14.190Z,94950.19
2023-02-17T04:03:41.661Z,94948.47
2023-02-17T04:06:09.189Z,94946.88
2023-02-17T04:08:36.503Z,94948.38
2023-02-17T04:11:04.764Z,94946.47
2023-02-17T04:13:32.019Z,94942.03
2023-02-17T04:15:59.287Z,94950.00
2023-02-17T04:18:25.967Z,94939.22
2023-02-17T04:20:54.229Z,94943.09
2023-02-17T04:23:20.860Z,94935.72
2023-02-17T04:25:48.179Z,94942.44
2023-02-17T04:28:15.979Z,94953.31
2023-02-17T04:30:47.358Z,94936.66
2023-02-17T04:33:14.481Z,94948.38
2023-02-17T04:35:41.190Z,94943.59
2023-02-17T04:38:09.048Z,94937.88
2023-02-17T04:40:35.964Z,94934.19
2023-02-17T04:43:03.601Z,94949.09
2023-02-17T04:45:30.397Z,94966.25
2023-02-17T04:47:57.042Z,94969.78
2023-02-17T04:50:23.738Z,94951.69
2023-02-17T04:52:50.458Z,94962.09
2023-02-17T04:55:18.507Z,94959.31
2023-02-17T04:57:45.357Z,94957.19
2023-02-17T05:00:12.428Z,94944.31
2023-02-17T05:02:39.521Z,94959.25
2023-02-17T05:05:06.450Z,94946.47
2023-02-17T05:07:33.229Z,94959.84
2023-02-17T05:09:59.831Z,94962.06
2023-02-17T05:12:26.526Z,94972.78
2023-02-17T05:14:53.132Z,94965.44
2023-02-17T05:17:19.767Z,94966.63
2023-02-17T05:19:46.482Z,94972.59
2023-02-17T05:22:13.154Z,94977.19
2023-02-17T05:24:39.830Z,94985.59
2023-02-17T05:27:06.645Z,94993.56
2023-02-17T05:29:33.414Z,94980.69
2023-02-17T05:32:00.140Z,95002.06
2023-02-17T05:34:27.017Z,94988.63
2023-02-17T05:36:53.725Z,94996.16
2023-02-17T05:39:20.402Z,94990.31
2023-02-17T05:41:46.978Z,95006.03
2023-02-17T05:44:13.551Z,95009.38
2023-02-17T05:46:40.410Z,95006.25
2023-02-17T05:49:07.357Z,95005.88
2023-02-17T05:51:34.064Z,95010.81
2023-02-17T05:54:00.746Z,95003.72
2023-02-17T05:56:27.753Z,95017.38
2023-02-17T05:58:54.541Z,95016.88
2023-02-17T06:01:21.400Z,95013.88
2023-02-17T06:03:48.219Z,95018.16
2023-02-17T06:06:15.125Z,95010.44
2023-02-17T06:08:42.450Z,95016.03
2023-02-17T06:11:09.151Z,95016.09
2023-02-17T06:13:35.837Z,95020.72
2023-02-17T06:16:02.970Z,95013.81
2023-02-17T06:18:29.701Z,95017.34
2023-02-17T06:20:57.737Z,95012.63
2023-02-17T06:23:25.162Z,95013.13
2023-02-17T06:25:51.857Z,95008.63
2023-02-17T06:28:18.517Z,95010.16
2023-02-17T06:30:45.164Z,95020.91
2023-02-17T06:33:11.972Z,95009.28
2023-02-17T06:35:38.987Z,95009.59
2023-02-17T06:38:05.839Z,95011.28
2023-02-17T06:40:32.500Z,95015.53
2023-02-17T06:42:59.144Z,95016.41
2023-02-17T06:45:25.830Z,95033.16
2023-02-17T06:47:52.478Z,95031.56
2023-02-17T06:50:19.178Z,95025.50
2023-02-17T06:52:45.762Z,95032.88
2023-02-17T06:55:12.681Z,95019.97
2023-02-17T06:57:39.263Z,95025.91
2023-02-17T07:00:06.606Z,95025.97
2023-02-17T07:02:33.483Z,95030.13
2023-02-17T07:05:00.115Z,95027.06
2023-02-17T07:07:26.804Z,95042.00
2023-02-17T07:09:53.462Z,95027.13
2023-02-17T07:12:20.081Z,95034.47
2023-02-17T07:14:46.710Z,95044.59
2023-02-17T07:17:13.383Z,95042.66
2023-02-17T07:19:40.014Z,95038.38
2023-02-17T07:22:06.675Z,95042.88
2023-02-17T07:24:34.141Z,95046.59
2023-02-17T07:27:01.086Z,95038.44
2023-02-17T07:29:27.965Z,95048.53
2023-02-17T07:31:54.720Z,95046.69
2023-02-17T07:34:21.408Z,95049.69
2023-02-17T07:36:48.301Z,95053.03
2023-02-17T07:39:16.167Z,95043.16
2023-02-17T07:41:42.816Z,95052.41
2023-02-17T07:44:10.117Z,95063.38
2023-02-17T07:46:37.139Z,95059.47
2023-02-17T07:49:04.064Z,95058.03
2023-02-17T07:51:30.695Z,95055.81
2023-02-17T07:53:57.437Z,95051.16
2023-02-17T07:56:24.326Z,95057.94
2023-02-17T07:58:51.145Z,95048.78
2023-02-17T08:01:20.922Z,95044.47
2023-02-17T08:03:48.636Z,95049.59
2023-02-17T08:06:33.610Z,95045.78
2023-02-17T08:09:18.833Z,95043.28
2023-02-17T08:12:03.569Z,95047.66
2023-02-17T08:14:33.342Z,95048.25
2023-02-17T08:17:00.377Z,95051.78
2023-02-17T08:19:31.728Z,95050.31
2023-02-17T08:22:06.163Z,95051.75
2023-02-17T08:24:32.802Z,95047.28
2023-02-17T08:26:59.510Z,95042.56
2023-02-17T08:29:26.226Z,95044.81
2023-02-17T08:31:53.638Z,95046.09
2023-02-17T08:34:20.748Z,95034.28
2023-02-17T08:36:47.569Z,95039.84
2023-02-17T08:39:17.120Z,95032.66
2023-02-17T08:41:44.968Z,95033.25
2023-02-17T08:44:15.108Z,95024.63
2023-02-17T08:46:42.792Z,95028.16
2023-02-17T08:49:09.952Z,95039.03
2023-02-17T08:51:37.556Z,95029.41
2023-02-17T08:54:06.607Z,95034.09
2023-02-17T08:56:34.510Z,95036.50
2023-02-17T08:59:01.284Z,95031.72
2023-02-17T09:01:27.897Z,95034.94
2023-02-17T09:03:57.236Z,95038.72
2023-02-17T09:06:24.068Z,95035.31
2023-02-17T09:08:51.191Z,95033.53
2023-02-17T09:11:19.841Z,95033.19
2023-02-17T09:13:46.789Z,95031.06
2023-02-17T09:16:13.552Z,95033.72
2023-02-17T09:18:40.272Z,95032.16
2023-02-17T09:21:13.608Z,95027.97
2023-02-17T09:23:41.176Z,95030.84
2023-02-17T09:26:10.563Z,95025.13
2023-02-17T09:28:38.192Z,95023.94
2023-02-17T09:31:18.268Z,95036.25
2023-02-17T09:33:47.868Z,95038.81
2023-02-17T09:36:17.928Z,95026.56
2023-02-17T09:38:45.084Z,95022.53
2023-02-17T09:41:27.012Z,95021.19
2023-02-17T09:43:55.689Z,95026.91
2023-02-17T09:46:31.961Z,95028.53
2023-02-17T09:49:20.765Z,95025.78
2023-02-17T09:52:19.778Z,95019.75
2023-02-17T09:54:59.085Z,95023.84
2023-02-17T09:57:29.536Z,95028.97
2023-02-17T10:00:03.004Z,95018.34
2023-02-17T10:02:59.242Z,95037.97
2023-02-17T10:05:33.578Z,95030.72
2023-02-17T10:08:10.969Z,95028.13
2023-02-17T10:11:08.809Z,95019.00
2023-02-17T10:13:39.665Z,95023.75
2023-02-17T10:16:11.997Z,95011.78
2023-02-17T10:18:52.079Z,95005.28
2023-02-17T10:21:26.746Z,95003.81
2023-02-17T10:23:53.372Z,95010.03
2023-02-17T10:26:39.423Z,95005.28
2023-02-17T10:29:31.780Z,95001.25
2023-02-17T10:32:14.486Z,94989.41
2023-02-17T10:34:51.205Z,94981.72
2023-02-17T10:37:40.506Z,94985.28
2023-02-17T10:40:20.980Z,94983.22
2023-02-17T10:42:51.170Z,94992.31
2023-02-17T10:45:49.939Z,94989.31
2023-02-17T10:48:22.461Z,94983.03
2023-02-17T10:50:50.104Z,94985.16
2023-02-17T10:53:21.446Z,94978.59
2023-02-17T10:56:09.365Z,94975.81
2023-02-17T10:58:58.096Z,94961.44
2023-02-17T11:01:25.361Z,94967.88
2023-02-17T11:04:13.811Z,94960.59
2023-02-17T11:06:52.525Z,94964.22
2023-02-17T11:09:28.946Z,94965.44
2023-02-17T11:12:00.119Z,94955.84
2023-02-17T11:14:30.685Z,94967.88
2023-02-17T11:17:33.086Z,94966.53
2023-02-17T11:20:06.811Z,94971.22
2023-02-17T11:22:40.832Z,94967.78
2023-02-17T11:25:22.506Z,94959.75
2023-02-17T11:27:53.502Z,94962.53
2023-02-17T11:30:20.888Z,94968.69
2023-02-17T11:32:48.313Z,94954.44
2023-02-17T11:35:46.557Z,94957.91
2023-02-17T11:38:20.007Z,94948.53
2023-02-17T11:40:56.300Z,94952.34
2023-02-17T11:43:23.899Z,94954.81
2023-02-17T11:46:01.124Z,94934.09
2023-02-17T11:48:40.016Z,94946.50
2023-02-17T11:51:32.579Z,94934.13
2023-02-17T11:54:25.752Z,94932.97
2023-02-17T11:57:27.806Z,94930.97
2023-02-17T12:00:05.840Z,94932.56
2023-02-17T12:02:41.113Z,94925.91
2023-02-17T12:05:16.916Z,94928.53
2023-02-17T12:08:15.942Z,94922.94
2023-02-17T12:10:50.449Z,94914.41
2023-02-17T12:13:29.640Z,94911.88
2023-02-17T12:16:20.783Z,94909.13
2023-02-17T12:19:03.912Z,94900.75
2023-02-17T12:21:53.678Z,94905.00
2023-02-17T12:24:26.111Z,94900.72
2023-02-17T12:33:14.814Z,94882.94
2023-02-17T12:35:57.572Z,94883.16
2023-02-17T12:38:32.689Z,94873.75
2023-02-17T12:46:41.528Z,94863.53
2023-02-17T12:49:20.198Z,94864.13
2023-02-17T12:51:51.897Z,94858.84
2023-02-17T12:54:32.808Z,94857.59
2023-02-17T12:57:15.180Z,94856.31
2023-02-17T12:59:48.181Z,94847.19
2023-02-17T13:02:23.847Z,94844.75
2023-02-17T13:04:55.817Z,94848.88
2023-02-17T13:07:26.691Z,94843.63
2023-02-17T13:09:56.092Z,94858.94
2023-02-17T13:12:22.737Z,94854.25
2023-02-17T13:14:50.823Z,94848.47
2023-02-17T13:17:36.979Z,94847.78
2023-02-17T13:20:26.462Z,94850.19
2023-02-17T13:23:12.077Z,94864.56
2023-02-17T13:25:38.847Z,94849.84
2023-02-17T13:28:33.490Z,94852.19
2023-02-17T13:31:14.223Z,94839.88
2023-02-17T13:34:04.090Z,94841.91
2023-02-17T13:36:37.092Z,94843.81
2023-02-17T13:39:03.681Z,94837.38
2023-02-17T13:41:44.127Z,94842.59
2023-02-17T13:44:26.651Z,94837.72
2023-02-17T13:46:56.309Z,94837.91
2023-02-17T13:49:27.607Z,94831.88
2023-02-17T13:51:55.387Z,94836.19
2023-02-17T13:54:23.319Z,94834.97
2023-02-17T13:56:53.976Z,94841.19
2023-02-17T13:59:26.080Z,94835.97
2023-02-17T14:01:54.906Z,94844.13
2023-02-17T14:04:31.415Z,94841.53
2023-02-17T14:07:00.197Z,94841.97
2023-02-17T14:09:28.670Z,94853.56
2023-02-17T14:11:56.613Z,94834.94
2023-02-17T14:14:33.036Z,94850.31
2023-02-17T14:17:01.206Z,94842.97
2023-02-17T14:19:29.389Z,94847.72
2023-02-17T14:22:04.059Z,94846.09
2023-02-17T14:24:30.780Z,94844.56
2023-02-17T14:27:04.191Z,94848.09
2023-02-17T14:29:42.256Z,94848.72
2023-02-17T14:32:33.228Z,94849.06
2023-02-17T14:35:26.223Z,94845.53
2023-02-17T14:37:53.011Z,94843.31
2023-02-17T14:40:24.585Z,94847.41
2023-02-17T14:42:52.054Z,94849.75
2023-02-17T14:45:19.170Z,94847.25
2023-02-17T14:47:46.826Z,94853.09
2023-02-17T14:50:16.195Z,94853.72
2023-02-17T14:52:46.626Z,94847.25
2023-02-17T14:55:28.322Z,94840.00
2023-02-17T14:57:55.202Z,94845.84
2023-02-17T15:00:22.372Z,94844.91
2023-02-17T15:02:49.028Z,94838.63
2023-02-17T15:05:15.781Z,94841.13
2023-02-17T15:07:42.488Z,94830.91
2023-02-17T15:10:29.167Z,94845.53
2023-02-17T15:12:57.041Z,94843.69
2023-02-17T15:15:23.848Z,94844.91
2023-02-17T15:17:50.498Z,94852.63
2023-02-17T15:20:17.509Z,94842.28
2023-02-17T15:22:44.761Z,94844.28
2023-02-17T15:25:22.197Z,94845.84
2023-02-17T15:27:51.609Z,94839.56
2023-02-17T15:30:21.882Z,94843.25
2023-02-17T15:32:48.962Z,94837.47
2023-02-17T15:35:24.719Z,94846.72
2023-02-17T15:37:52.101Z,94841.94
2023-02-17T15:40:27.782Z,94849.94
2023-02-17T15:42:57.159Z,94851.97
2023-02-17T15:45:24.743Z,94855.75
2023-02-17T15:47:55.982Z,94862.34
2023-02-17T15:50:23.116Z,94876.38
2023-02-17T15:52:51.011Z,94873.47
2023-02-17T15:55:19.170Z,94879.88
2023-02-17T15:57:48.429Z,94883.81
2023-02-17T16:00:25.324Z,94880.38
2023-02-17T16:02:53.226Z,94892.66
2023-02-17T16:05:23.226Z,94891.75
2023-02-17T16:07:49.882Z,94902.94
2023-02-17T16:10:19.278Z,94893.66
2023-02-17T16:12:48.195Z,94903.22
2023-02-17T16:15:23.704Z,94904.53
2023-02-17T16:17:51.152Z,94908.78
2023-02-17T16:20:22.280Z,94919.19
2023-02-17T16:22:49.093Z,94912.47
2023-02-17T16:25:17.647Z,94904.28
2023-02-17T16:27:46.338Z,94916.03
2023-02-17T16:30:24.127Z,94903.06
2023-02-17T16:32:53.052Z,94918.16
2023-02-17T16:35:23.680Z,94920.53
2023-02-17T16:37:54.556Z,94918.31
2023-02-17T16:40:24.329Z,94925.41
2023-02-17T16:42:51.255Z,94923.97
2023-02-17T16:45:21.719Z,94919.28
2023-02-17T16:47:53.424Z,94914.69
2023-02-17T16:50:26.112Z,94923.41
2023-02-17T16:52:55.216Z,94921.66
2023-02-17T16:55:24.183Z,94916.00
2023-02-17T16:57:50.925Z,94923.16
2023-02-17T17:00:21.634Z,94919.38
2023-02-17T17:02:49.762Z,94915.38
2023-02-17T17:05:18.641Z,94924.25
2023-02-17T17:07:45.365Z,94929.59
2023-02-17T17:10:17.230Z,94927.88
2023-02-17T17:12:45.023Z,94927.19
2023-02-17T17:15:12.090Z,94925.53
2023-02-17T17:17:45.907Z,94917.50
2023-02-17T17:20:21.354Z,94922.13
2023-02-17T17:22:49.421Z,94924.44
2023-02-17T17:25:16.639Z,94925.00
2023-02-17T17:27:44.826Z,94923.88
2023-02-17T17:30:21.172Z,94920.06
2023-02-17T17:32:47.956Z,94924.41
2023-02-17T17:35:15.204Z,94915.03
2023-02-17T17:37:41.975Z,94912.09
2023-02-17T17:40:16.425Z,94908.13
2023-02-17T17:42:43.986Z,94907.19
2023-02-17T17:45:12.934Z,94909.34
2023-02-17T17:47:40.421Z,94904.13
2023-02-17T17:50:13.301Z,94908.94
2023-02-17T17:52:40.104Z,94908.63
2023-02-17T17:55:06.881Z,94912.41
2023-02-17T17:57:33.521Z,94903.94
2023-02-17T18:00:00.238Z,94909.91
2023-02-17T18:02:27.552Z,94913.50
2023-02-17T18:04:54.434Z,94905.50
2023-02-17T18:07:21.116Z,94899.75
2023-02-17T18:09:47.851Z,94905.44
2023-02-17T18:12:17.899Z,94904.22
2023-02-17T18:14:47.916Z,94905.56
2023-02-17T18:17:15.488Z,94897.22
2023-02-17T18:19:49.327Z,94901.69
2023-02-17T18:22:16.294Z,94893.63
2023-02-17T18:24:43.254Z,94897.94
2023-02-17T18:27:10.106Z,94894.16
2023-02-17T18:29:36.710Z,94899.75
2023-02-17T18:32:03.428Z,94898.94
2023-02-17T18:34:30.458Z,94898.16
2023-02-17T18:36:57.110Z,94906.59
2023-02-17T18:39:23.791Z,94904.56
2023-02-17T18:41:50.632Z,94899.75
2023-02-17T18:44:17.596Z,94897.28
2023-02-17T18:46:44.240Z,94896.94
2023-02-17T18:49:10.984Z,94905.03
2023-02-17T18:51:37.608Z,94906.94
2023-02-17T18:54:04.698Z,94899.59
2023-02-17T18:56:33.969Z,94892.59
2023-02-17T18:59:00.633Z,94904.97
2023-02-17T19:01:29.811Z,94907.22
2023-02-17T19:03:56.891Z,94898.16
2023-02-17T19:06:28.180Z,94909.03
2023-02-17T19:08:54.957Z,94918.88
2023-02-17T19:11:25.360Z,94921.91
2023-02-17T19:13:52.640Z,94920.00
2023-02-17T19:16:25.429Z,94920.44
2023-02-17T19:18:52.556Z,94923.63
2023-02-17T19:21:19.722Z,94927.94
2023-02-17T19:23:46.727Z,94938.16
2023-02-17T19:26:14.597Z,94934.09
2023-02-17T19:28:41.652Z,94937.25
2023-02-17T19:31:14.521Z,94936.31
2023-02-17T19:33:41.747Z,94930.81
2023-02-17T19:36:10.874Z,94937.72
2023-02-17T19:38:37.855Z,94928.38
2023-02-17T19:41:07.207Z,94929.13
2023-02-17T19:43:33.919Z,94931.81
2023-02-17T19:46:00.646Z,94925.28
2023-02-17T19:48:27.512Z,94923.94
2023-02-17T19:51:03.503Z,94924.72
2023-02-17T19:53:31.662Z,94921.53
2023-02-17T19:56:15.742Z,94924.03
2023-02-17T19:58:44.341Z,94925.41
2023-02-17T20:01:14.253Z,94924.81
2023-02-17T20:03:42.265Z,94919.56
2023-02-17T20:06:30.269Z,94917.81
2023-02-17T20:08:59.904Z,94899.53
2023-02-17T20:11:27.090Z,94898.88
2023-02-17T20:13:53.912Z,94894.69
2023-02-17T20:16:21.123Z,94897.22
2023-02-17T20:18:49.791Z,94893.13
2023-02-17T20:21:19.732Z,94891.94
2023-02-17T20:23:46.505Z,94895.44
2023-02-17T20:26:19.916Z,94898.81
2023-02-17T20:28:47.190Z,94890.16
2023-02-17T20:31:14.175Z,94899.09
2023-02-17T20:33:41.267Z,94902.28
2023-02-17T20:36:09.070Z,94909.03
2023-02-17T20:38:37.636Z,94899.94
2023-02-17T20:41:05.665Z,94901.97
2023-02-17T20:43:33.042Z,94904.59
2023-02-17T20:46:00.370Z,94904.44
2023-02-17T20:48:27.803Z,94900.97
2023-02-17T20:50:55.766Z,94903.25
2023-02-17T20:53:22.682Z,94902.97
2023-02-17T20:55:49.861Z,94918.56
2023-02-17T20:58:16.552Z,94918.22
2023-02-17T21:00:43.381Z,94915.59
2023-02-17T21:03:10.205Z,94925.63
2023-02-17T21:05:37.791Z,94915.44
2023-02-17T21:08:05.181Z,94916.38
2023-02-17T21:10:32.884Z,94915.91
2023-02-17T21:12:59.528Z,94925.63
2023-02-17T21:15:27.299Z,94914.94
2023-02-17T21:17:54.304Z,94921.72
2023-02-17T21:20:21.982Z,94919.38
2023-02-17T21:22:49.416Z,94913.56
2023-02-17T21:25:16.061Z,94904.78
2023-02-17T21:27:42.790Z,94908.53
2023-02-17T21:30:10.145Z,94900.88
2023-02-17T21:32:37.047Z,94899.78
2023-02-17T21:35:03.770Z,94899.13
2023-02-17T21:37:30.435Z,94899.75
2023-02-17T21:39:57.106Z,94900.69
2023-02-17T21:42:44.629Z,94889.09
2023-02-17T21:45:12.299Z,94893.78
2023-02-17T21:47:38.984Z,94893.31
2023-02-17T21:50:06.441Z,94890.66
2023-02-17T21:52:33.083Z,94882.22
2023-02-17T21:55:01.109Z,94892.88
2023-02-17T21:57:27.867Z,94892.34
2023-02-17T21:59:54.487Z,94898.03
2023-02-17T22:02:21.143Z,94895.31
2023-02-17T22:04:47.834Z,94903.72
2023-02-17T22:07:14.500Z,94904.25
2023-02-17T22:09:41.114Z,94902.31
2023-02-17T22:12:07.854Z,94905.72
2023-02-17T22:14:34.617Z,94915.00
2023-02-17T22:17:02.320Z,94907.75
2023-02-17T22:19:31.376Z,94906.66
2023-02-17T22:21:58.665Z,94900.38
2023-02-17T22:24:27.277Z,94898.19
2023-02-17T22:26:55.149Z,94892.84
2023-02-17T22:29:21.860Z,94896.00
2023-02-17T22:31:50.597Z,94886.50
2023-02-17T22:34:17.571Z,94892.28
2023-02-17T22:36:44.252Z,94898.44
2023-02-17T22:39:10.999Z,94897.03
2023-02-17T22:41:39.352Z,94890.53
2023-02-17T22:44:06.553Z,94897.94
2023-02-17T22:46:34.639Z,94893.19
2023-02-17T22:49:01.850Z,94880.34
2023-02-17T22:51:46.350Z,94882.69
2023-02-17T22:54:13.078Z,94872.28
2023-02-17T22:56:39.730Z,94869.34
2023-02-17T22:59:06.557Z,94883.53
2023-02-17T23:01:36.457Z,94881.09
2023-02-17T23:04:04.670Z,94878.13
2023-02-17T23:06:35.074Z,94882.09
2023-02-17T23:09:02.481Z,94878.88
2023-02-17T23:11:53.776Z,94888.25
2023-02-17T23:14:30.738Z,94886.59
2023-02-17T23:17:09.451Z,94877.75
2023-02-17T23:19:37.227Z,94882.28
2023-02-17T23:22:07.732Z,94874.34
2023-02-17T23:24:34.852Z,94861.53
2023-02-17T23:27:03.341Z,94867.81
2023-02-17T23:29:31.724Z,94857.22
2023-02-17T23:31:59.149Z,94865.84
2023-02-17T23:34:26.335Z,94859.22
2023-02-17T23:36:52.924Z,94871.00
2023-02-17T23:39:19.636Z,94863.63
2023-02-17T23:41:46.464Z,94866.16
2023-02-17T23:44:14.676Z,94868.41
2023-02-17T23:46:43.208Z,94857.78
2023-02-17T23:49:13.891Z,94854.47
2023-02-17T23:51:40.650Z,94853.34
2023-02-17T23:54:07.298Z,94852.97
2023-02-17T23:56:35.647Z,94849.78
2023-02-17T23:59:02.951Z,94841.63
